sensor_id;sensor_type;location;lat;lon;timestamp;P1;durP1;ratioP1;P2;durP2;ratioP2
65753;SDS011;52488;47.502;18.940;2022-12-22T00:01:10;43.42;;;18.42;;
65753;SDS011;52488;47.502;18.940;2022-12-22T00:02:33;43.33;;;17.35;;
65753;SDS011;52488;47.502;18.940;2022-12-22T00:03:55;44.42;;;19.02;;
65753;SDS011;52488;47.502;18.940;2022-12-22T00:05:18;44.13;;;18.35;;
65753;SDS011;52488;47.502;18.940;2022-12-22T00:06:42;41.40;;;18.17;;
65753;SDS011;52488;47.502;18.940;2022-12-22T00:08:05;40.08;;;17.83;;
65753;SDS011;52488;47.502;18.940;2022-12-22T00:09:27;41.72;;;17.50;;
65753;SDS011;52488;47.502;18.940;2022-12-22T00:12:12;37.17;;;16.62;;
65753;SDS011;52488;47.502;18.940;2022-12-22T00:13:35;40.00;;;17.10;;
65753;SDS011;52488;47.502;18.940;2022-12-22T00:14:56;44.22;;;17.42;;
65753;SDS011;52488;47.502;18.940;2022-12-22T00:16:19;41.20;;;17.60;;
65753;SDS011;52488;47.502;18.940;2022-12-22T00:17:41;39.50;;;17.60;;
65753;SDS011;52488;47.502;18.940;2022-12-22T00:19:11;42.95;;;19.17;;
65753;SDS011;52488;47.502;18.940;2022-12-22T00:20:33;42.67;;;16.92;;
65753;SDS011;52488;47.502;18.940;2022-12-22T00:21:55;39.40;;;18.45;;
65753;SDS011;52488;47.502;18.940;2022-12-22T00:23:21;45.58;;;18.33;;
65753;SDS011;52488;47.502;18.940;2022-12-22T00:24:42;40.50;;;18.00;;
65753;SDS011;52488;47.502;18.940;2022-12-22T00:26:04;40.38;;;18.10;;
65753;SDS011;52488;47.502;18.940;2022-12-22T00:27:27;42.08;;;18.23;;
65753;SDS011;52488;47.502;18.940;2022-12-22T00:28:50;38.83;;;17.27;;
65753;SDS011;52488;47.502;18.940;2022-12-22T00:30:12;41.50;;;17.73;;
65753;SDS011;52488;47.502;18.940;2022-12-22T00:31:35;41.30;;;18.30;;
65753;SDS011;52488;47.502;18.940;2022-12-22T00:32:59;40.58;;;17.83;;
65753;SDS011;52488;47.502;18.940;2022-12-22T00:34:22;39.88;;;18.27;;
65753;SDS011;52488;47.502;18.940;2022-12-22T00:35:44;41.10;;;18.65;;
65753;SDS011;52488;47.502;18.940;2022-12-22T00:37:10;42.80;;;18.65;;
65753;SDS011;52488;47.502;18.940;2022-12-22T00:38:32;42.47;;;18.77;;
65753;SDS011;52488;47.502;18.940;2022-12-22T00:39:54;45.45;;;19.62;;
65753;SDS011;52488;47.502;18.940;2022-12-22T00:41:15;47.62;;;19.65;;
65753;SDS011;52488;47.502;18.940;2022-12-22T00:42:37;41.30;;;18.95;;
65753;SDS011;52488;47.502;18.940;2022-12-22T00:43:59;42.35;;;19.70;;
65753;SDS011;52488;47.502;18.940;2022-12-22T00:45:20;41.90;;;20.05;;
65753;SDS011;52488;47.502;18.940;2022-12-22T00:46:43;43.35;;;19.12;;
65753;SDS011;52488;47.502;18.940;2022-12-22T00:48:07;44.92;;;19.33;;
65753;SDS011;52488;47.502;18.940;2022-12-22T00:49:44;43.00;;;19.05;;
65753;SDS011;52488;47.502;18.940;2022-12-22T00:51:08;42.95;;;19.17;;
65753;SDS011;52488;47.502;18.940;2022-12-22T00:52:32;42.20;;;18.80;;
65753;SDS011;52488;47.502;18.940;2022-12-22T00:53:55;42.33;;;18.80;;
65753;SDS011;52488;47.502;18.940;2022-12-22T00:55:18;44.17;;;18.42;;
65753;SDS011;52488;47.502;18.940;2022-12-22T00:56:44;40.20;;;17.42;;
65753;SDS011;52488;47.502;18.940;2022-12-22T00:58:10;41.88;;;18.90;;
65753;SDS011;52488;47.502;18.940;2022-12-22T00:59:36;42.60;;;17.23;;
65753;SDS011;52488;47.502;18.940;2022-12-22T01:00:58;41.35;;;18.77;;
65753;SDS011;52488;47.502;18.940;2022-12-22T01:03:42;39.78;;;16.48;;
65753;SDS011;52488;47.502;18.940;2022-12-22T01:05:03;39.90;;;17.60;;
65753;SDS011;52488;47.502;18.940;2022-12-22T01:06:25;42.08;;;17.20;;
65753;SDS011;52488;47.502;18.940;2022-12-22T01:07:51;40.50;;;17.83;;
65753;SDS011;52488;47.502;18.940;2022-12-22T01:09:13;36.38;;;16.90;;
65753;SDS011;52488;47.502;18.940;2022-12-22T01:10:34;37.45;;;17.33;;
65753;SDS011;52488;47.502;18.940;2022-12-22T01:11:56;38.65;;;17.48;;
65753;SDS011;52488;47.502;18.940;2022-12-22T01:13:17;37.45;;;16.98;;
65753;SDS011;52488;47.502;18.940;2022-12-22T01:14:39;39.75;;;17.87;;
65753;SDS011;52488;47.502;18.940;2022-12-22T01:16:01;38.28;;;17.40;;
65753;SDS011;52488;47.502;18.940;2022-12-22T01:17:22;36.70;;;17.15;;
65753;SDS011;52488;47.502;18.940;2022-12-22T01:18:46;43.17;;;17.15;;
65753;SDS011;52488;47.502;18.940;2022-12-22T01:20:09;38.35;;;17.50;;
65753;SDS011;52488;47.502;18.940;2022-12-22T01:22:52;37.58;;;16.02;;
65753;SDS011;52488;47.502;18.940;2022-12-22T01:24:15;37.63;;;16.62;;
65753;SDS011;52488;47.502;18.940;2022-12-22T01:25:37;40.35;;;16.00;;
65753;SDS011;52488;47.502;18.940;2022-12-22T01:26:59;35.78;;;16.83;;
65753;SDS011;52488;47.502;18.940;2022-12-22T01:28:23;43.20;;;16.27;;
65753;SDS011;52488;47.502;18.940;2022-12-22T01:29:45;37.03;;;15.63;;
65753;SDS011;52488;47.502;18.940;2022-12-22T01:31:17;38.03;;;16.10;;
65753;SDS011;52488;47.502;18.940;2022-12-22T01:32:42;36.72;;;15.82;;
65753;SDS011;52488;47.502;18.940;2022-12-22T01:35:27;39.03;;;16.08;;
65753;SDS011;52488;47.502;18.940;2022-12-22T01:36:51;34.17;;;16.58;;
65753;SDS011;52488;47.502;18.940;2022-12-22T01:38:14;41.15;;;16.90;;
65753;SDS011;52488;47.502;18.940;2022-12-22T01:39:35;42.15;;;17.25;;
65753;SDS011;52488;47.502;18.940;2022-12-22T01:40:58;39.28;;;17.17;;
65753;SDS011;52488;47.502;18.940;2022-12-22T01:42:22;45.03;;;17.40;;
65753;SDS011;52488;47.502;18.940;2022-12-22T01:43:44;36.67;;;16.48;;
65753;SDS011;52488;47.502;18.940;2022-12-22T01:46:44;35.92;;;16.83;;
65753;SDS011;52488;47.502;18.940;2022-12-22T01:48:13;39.55;;;16.85;;
65753;SDS011;52488;47.502;18.940;2022-12-22T01:49:41;40.03;;;17.50;;
65753;SDS011;52488;47.502;18.940;2022-12-22T01:51:05;40.08;;;18.70;;
65753;SDS011;52488;47.502;18.940;2022-12-22T01:52:31;46.10;;;18.50;;
65753;SDS011;52488;47.502;18.940;2022-12-22T01:53:56;44.58;;;18.12;;
65753;SDS011;52488;47.502;18.940;2022-12-22T01:55:19;44.15;;;19.05;;
65753;SDS011;52488;47.502;18.940;2022-12-22T01:56:44;49.92;;;19.30;;
65753;SDS011;52488;47.502;18.940;2022-12-22T01:58:23;44.67;;;18.40;;
65753;SDS011;52488;47.502;18.940;2022-12-22T01:59:50;46.28;;;19.02;;
65753;SDS011;52488;47.502;18.940;2022-12-22T02:01:12;42.35;;;18.87;;
65753;SDS011;52488;47.502;18.940;2022-12-22T02:02:34;44.67;;;19.05;;
65753;SDS011;52488;47.502;18.940;2022-12-22T02:03:56;44.15;;;18.15;;
65753;SDS011;52488;47.502;18.940;2022-12-22T02:05:18;43.65;;;19.45;;
65753;SDS011;52488;47.502;18.940;2022-12-22T02:06:41;45.53;;;20.27;;
65753;SDS011;52488;47.502;18.940;2022-12-22T02:08:13;45.97;;;18.87;;
65753;SDS011;52488;47.502;18.940;2022-12-22T02:11:55;42.42;;;18.83;;
65753;SDS011;52488;47.502;18.940;2022-12-22T02:13:24;46.22;;;19.30;;
65753;SDS011;52488;47.502;18.940;2022-12-22T02:15:04;49.13;;;19.45;;
65753;SDS011;52488;47.502;18.940;2022-12-22T02:16:33;43.92;;;19.02;;
65753;SDS011;52488;47.502;18.940;2022-12-22T02:21:01;44.58;;;18.73;;
65753;SDS011;52488;47.502;18.940;2022-12-22T02:22:32;44.13;;;18.10;;
65753;SDS011;52488;47.502;18.940;2022-12-22T02:27:39;46.33;;;18.87;;
65753;SDS011;52488;47.502;18.940;2022-12-22T02:29:03;45.45;;;19.98;;
65753;SDS011;52488;47.502;18.940;2022-12-22T02:30:27;49.35;;;20.25;;
65753;SDS011;52488;47.502;18.940;2022-12-22T02:31:49;48.03;;;20.10;;
65753;SDS011;52488;47.502;18.940;2022-12-22T02:33:11;50.88;;;21.33;;
65753;SDS011;52488;47.502;18.940;2022-12-22T02:34:33;48.30;;;21.27;;
65753;SDS011;52488;47.502;18.940;2022-12-22T02:36:02;44.15;;;19.23;;
65753;SDS011;52488;47.502;18.940;2022-12-22T02:37:53;45.17;;;19.52;;
65753;SDS011;52488;47.502;18.940;2022-12-22T02:44:27;48.05;;;18.52;;
65753;SDS011;52488;47.502;18.940;2022-12-22T02:46:13;43.72;;;18.45;;
65753;SDS011;52488;47.502;18.940;2022-12-22T02:47:50;50.20;;;18.58;;
65753;SDS011;52488;47.502;18.940;2022-12-22T02:49:27;42.50;;;18.42;;
65753;SDS011;52488;47.502;18.940;2022-12-22T02:51:06;43.60;;;18.27;;
65753;SDS011;52488;47.502;18.940;2022-12-22T02:52:32;42.90;;;17.37;;
65753;SDS011;52488;47.502;18.940;2022-12-22T02:53:56;49.88;;;19.33;;
65753;SDS011;52488;47.502;18.940;2022-12-22T02:55:19;47.13;;;19.50;;
65753;SDS011;52488;47.502;18.940;2022-12-22T02:56:41;50.22;;;19.37;;
65753;SDS011;52488;47.502;18.940;2022-12-22T02:58:05;45.55;;;18.92;;
65753;SDS011;52488;47.502;18.940;2022-12-22T02:59:27;47.75;;;19.70;;
65753;SDS011;52488;47.502;18.940;2022-12-22T03:00:50;47.25;;;21.33;;
65753;SDS011;52488;47.502;18.940;2022-12-22T03:02:12;48.92;;;19.85;;
65753;SDS011;52488;47.502;18.940;2022-12-22T03:03:34;46.85;;;19.45;;
65753;SDS011;52488;47.502;18.940;2022-12-22T03:04:56;46.88;;;19.62;;
65753;SDS011;52488;47.502;18.940;2022-12-22T03:06:17;50.12;;;20.62;;
65753;SDS011;52488;47.502;18.940;2022-12-22T03:09:09;43.90;;;19.08;;
65753;SDS011;52488;47.502;18.940;2022-12-22T03:10:31;48.67;;;18.58;;
65753;SDS011;52488;47.502;18.940;2022-12-22T03:11:53;44.20;;;18.48;;
65753;SDS011;52488;47.502;18.940;2022-12-22T03:13:15;45.88;;;18.33;;
65753;SDS011;52488;47.502;18.940;2022-12-22T03:14:36;46.83;;;19.00;;
65753;SDS011;52488;47.502;18.940;2022-12-22T03:17:19;42.85;;;17.02;;
65753;SDS011;52488;47.502;18.940;2022-12-22T03:18:41;43.55;;;18.45;;
65753;SDS011;52488;47.502;18.940;2022-12-22T03:20:03;47.95;;;18.25;;
65753;SDS011;52488;47.502;18.940;2022-12-22T03:21:25;40.12;;;17.55;;
65753;SDS011;52488;47.502;18.940;2022-12-22T03:22:47;46.42;;;18.42;;
65753;SDS011;52488;47.502;18.940;2022-12-22T03:24:09;48.10;;;19.30;;
65753;SDS011;52488;47.502;18.940;2022-12-22T03:25:30;47.70;;;18.83;;
65753;SDS011;52488;47.502;18.940;2022-12-22T03:26:53;46.55;;;18.65;;
65753;SDS011;52488;47.502;18.940;2022-12-22T03:28:04;45.67;;;17.85;;
65753;SDS011;52488;47.502;18.940;2022-12-22T03:29:09;43.97;;;19.45;;
65753;SDS011;52488;47.502;18.940;2022-12-22T03:30:12;46.45;;;19.92;;
65753;SDS011;52488;47.502;18.940;2022-12-22T03:31:15;48.80;;;19.23;;
65753;SDS011;52488;47.502;18.940;2022-12-22T03:32:18;49.30;;;19.52;;
65753;SDS011;52488;47.502;18.940;2022-12-22T03:33:21;47.05;;;18.75;;
65753;SDS011;52488;47.502;18.940;2022-12-22T03:34:25;42.67;;;18.08;;
65753;SDS011;52488;47.502;18.940;2022-12-22T03:35:28;51.42;;;20.42;;
65753;SDS011;52488;47.502;18.940;2022-12-22T03:36:31;46.53;;;18.83;;
65753;SDS011;52488;47.502;18.940;2022-12-22T03:37:34;48.17;;;19.92;;
65753;SDS011;52488;47.502;18.940;2022-12-22T03:38:38;48.13;;;19.92;;
65753;SDS011;52488;47.502;18.940;2022-12-22T03:39:41;45.55;;;19.50;;
65753;SDS011;52488;47.502;18.940;2022-12-22T03:40:44;47.83;;;19.60;;
65753;SDS011;52488;47.502;18.940;2022-12-22T03:41:48;41.70;;;19.15;;
65753;SDS011;52488;47.502;18.940;2022-12-22T03:43:10;43.97;;;18.87;;
65753;SDS011;52488;47.502;18.940;2022-12-22T03:44:33;46.25;;;19.52;;
65753;SDS011;52488;47.502;18.940;2022-12-22T03:47:16;45.38;;;18.35;;
65753;SDS011;52488;47.502;18.940;2022-12-22T03:48:22;47.15;;;19.90;;
65753;SDS011;52488;47.502;18.940;2022-12-22T03:49:25;43.58;;;18.77;;
65753;SDS011;52488;47.502;18.940;2022-12-22T03:50:28;48.45;;;19.58;;
65753;SDS011;52488;47.502;18.940;2022-12-22T03:51:31;50.42;;;19.92;;
65753;SDS011;52488;47.502;18.940;2022-12-22T03:52:35;42.42;;;19.65;;
65753;SDS011;52488;47.502;18.940;2022-12-22T03:53:38;49.92;;;21.02;;
65753;SDS011;52488;47.502;18.940;2022-12-22T03:54:41;46.80;;;19.65;;
65753;SDS011;52488;47.502;18.940;2022-12-22T03:55:44;52.00;;;19.62;;
65753;SDS011;52488;47.502;18.940;2022-12-22T03:56:47;49.00;;;21.02;;
65753;SDS011;52488;47.502;18.940;2022-12-22T03:57:51;50.17;;;20.75;;
65753;SDS011;52488;47.502;18.940;2022-12-22T03:58:55;50.05;;;19.45;;
65753;SDS011;52488;47.502;18.940;2022-12-22T03:59:58;49.78;;;20.15;;
65753;SDS011;52488;47.502;18.940;2022-12-22T04:01:05;55.75;;;21.30;;
65753;SDS011;52488;47.502;18.940;2022-12-22T04:02:09;50.10;;;19.85;;
65753;SDS011;52488;47.502;18.940;2022-12-22T04:03:12;46.95;;;19.83;;
65753;SDS011;52488;47.502;18.940;2022-12-22T04:04:16;42.70;;;20.05;;
65753;SDS011;52488;47.502;18.940;2022-12-22T04:05:21;42.65;;;20.23;;
65753;SDS011;52488;47.502;18.940;2022-12-22T04:06:24;47.17;;;20.37;;
65753;SDS011;52488;47.502;18.940;2022-12-22T04:07:27;47.67;;;20.08;;
65753;SDS011;52488;47.502;18.940;2022-12-22T04:08:31;52.75;;;21.15;;
65753;SDS011;52488;47.502;18.940;2022-12-22T04:09:34;55.15;;;21.65;;
65753;SDS011;52488;47.502;18.940;2022-12-22T04:10:37;50.88;;;20.90;;
65753;SDS011;52488;47.502;18.940;2022-12-22T04:11:59;46.40;;;20.02;;
65753;SDS011;52488;47.502;18.940;2022-12-22T04:13:40;50.17;;;21.30;;
65753;SDS011;52488;47.502;18.940;2022-12-22T04:14:43;48.05;;;21.20;;
65753;SDS011;52488;47.502;18.940;2022-12-22T04:15:46;57.72;;;23.30;;
65753;SDS011;52488;47.502;18.940;2022-12-22T04:16:49;55.50;;;20.95;;
65753;SDS011;52488;47.502;18.940;2022-12-22T04:17:53;53.92;;;21.87;;
65753;SDS011;52488;47.502;18.940;2022-12-22T04:18:56;49.78;;;20.92;;
65753;SDS011;52488;47.502;18.940;2022-12-22T04:20:00;46.85;;;20.55;;
65753;SDS011;52488;47.502;18.940;2022-12-22T04:21:03;50.75;;;21.65;;
65753;SDS011;52488;47.502;18.940;2022-12-22T04:22:06;52.65;;;22.27;;
65753;SDS011;52488;47.502;18.940;2022-12-22T04:23:09;54.72;;;22.08;;
65753;SDS011;52488;47.502;18.940;2022-12-22T04:24:13;52.75;;;22.35;;
65753;SDS011;52488;47.502;18.940;2022-12-22T04:25:16;54.72;;;22.80;;
65753;SDS011;52488;47.502;18.940;2022-12-22T04:26:20;50.67;;;22.10;;
65753;SDS011;52488;47.502;18.940;2022-12-22T04:27:25;52.75;;;23.17;;
65753;SDS011;52488;47.502;18.940;2022-12-22T04:28:28;51.37;;;21.48;;
65753;SDS011;52488;47.502;18.940;2022-12-22T04:29:31;48.97;;;22.10;;
65753;SDS011;52488;47.502;18.940;2022-12-22T04:30:34;48.28;;;21.60;;
65753;SDS011;52488;47.502;18.940;2022-12-22T04:31:37;51.05;;;21.33;;
65753;SDS011;52488;47.502;18.940;2022-12-22T04:32:40;45.33;;;19.95;;
65753;SDS011;52488;47.502;18.940;2022-12-22T04:33:44;52.08;;;21.85;;
65753;SDS011;52488;47.502;18.940;2022-12-22T04:34:47;54.42;;;21.50;;
65753;SDS011;52488;47.502;18.940;2022-12-22T04:35:50;51.05;;;21.17;;
65753;SDS011;52488;47.502;18.940;2022-12-22T04:36:53;47.35;;;20.48;;
65753;SDS011;52488;47.502;18.940;2022-12-22T04:38:03;48.17;;;21.62;;
65753;SDS011;52488;47.502;18.940;2022-12-22T04:39:06;50.85;;;22.40;;
65753;SDS011;52488;47.502;18.940;2022-12-22T04:40:09;52.47;;;21.60;;
65753;SDS011;52488;47.502;18.940;2022-12-22T04:41:12;46.47;;;21.02;;
65753;SDS011;52488;47.502;18.940;2022-12-22T04:42:15;58.72;;;22.48;;
65753;SDS011;52488;47.502;18.940;2022-12-22T04:43:19;51.75;;;22.25;;
65753;SDS011;52488;47.502;18.940;2022-12-22T04:44:22;47.62;;;21.73;;
65753;SDS011;52488;47.502;18.940;2022-12-22T04:45:25;51.17;;;21.95;;
65753;SDS011;52488;47.502;18.940;2022-12-22T04:46:31;49.80;;;21.73;;
65753;SDS011;52488;47.502;18.940;2022-12-22T04:47:35;53.83;;;21.62;;
65753;SDS011;52488;47.502;18.940;2022-12-22T04:48:38;51.17;;;22.45;;
65753;SDS011;52488;47.502;18.940;2022-12-22T04:49:41;46.35;;;21.05;;
65753;SDS011;52488;47.502;18.940;2022-12-22T04:50:44;53.83;;;22.00;;
65753;SDS011;52488;47.502;18.940;2022-12-22T04:51:47;55.70;;;23.45;;
65753;SDS011;52488;47.502;18.940;2022-12-22T04:52:50;50.55;;;21.85;;
65753;SDS011;52488;47.502;18.940;2022-12-22T04:53:54;48.22;;;21.48;;
65753;SDS011;52488;47.502;18.940;2022-12-22T04:54:59;50.95;;;21.67;;
65753;SDS011;52488;47.502;18.940;2022-12-22T04:56:03;53.35;;;22.15;;
65753;SDS011;52488;47.502;18.940;2022-12-22T04:57:08;48.33;;;21.02;;
65753;SDS011;52488;47.502;18.940;2022-12-22T04:58:11;50.05;;;21.30;;
65753;SDS011;52488;47.502;18.940;2022-12-22T04:59:15;49.70;;;20.85;;
65753;SDS011;52488;47.502;18.940;2022-12-22T05:00:18;52.03;;;21.10;;
65753;SDS011;52488;47.502;18.940;2022-12-22T05:01:21;44.97;;;20.52;;
65753;SDS011;52488;47.502;18.940;2022-12-22T05:02:25;48.40;;;21.58;;
65753;SDS011;52488;47.502;18.940;2022-12-22T05:03:28;48.78;;;21.12;;
65753;SDS011;52488;47.502;18.940;2022-12-22T05:04:31;52.15;;;21.95;;
65753;SDS011;52488;47.502;18.940;2022-12-22T05:05:34;52.85;;;22.83;;
65753;SDS011;52488;47.502;18.940;2022-12-22T05:06:38;49.80;;;21.05;;
65753;SDS011;52488;47.502;18.940;2022-12-22T05:07:40;50.28;;;21.85;;
65753;SDS011;52488;47.502;18.940;2022-12-22T05:08:45;46.92;;;20.42;;
65753;SDS011;52488;47.502;18.940;2022-12-22T05:09:48;45.83;;;20.10;;
65753;SDS011;52488;47.502;18.940;2022-12-22T05:10:51;49.90;;;20.55;;
65753;SDS011;52488;47.502;18.940;2022-12-22T05:11:54;48.70;;;20.83;;
65753;SDS011;52488;47.502;18.940;2022-12-22T05:12:57;51.13;;;21.73;;
65753;SDS011;52488;47.502;18.940;2022-12-22T05:14:01;52.05;;;21.50;;
65753;SDS011;52488;47.502;18.940;2022-12-22T05:15:09;50.90;;;21.37;;
65753;SDS011;52488;47.502;18.940;2022-12-22T05:16:13;50.97;;;22.08;;
65753;SDS011;52488;47.502;18.940;2022-12-22T05:17:18;52.10;;;20.52;;
65753;SDS011;52488;47.502;18.940;2022-12-22T05:18:21;52.80;;;20.27;;
65753;SDS011;52488;47.502;18.940;2022-12-22T05:19:25;47.47;;;21.02;;
65753;SDS011;52488;47.502;18.940;2022-12-22T05:20:33;49.83;;;19.70;;
65753;SDS011;52488;47.502;18.940;2022-12-22T05:21:37;44.45;;;19.60;;
65753;SDS011;52488;47.502;18.940;2022-12-22T05:22:41;49.55;;;20.50;;
65753;SDS011;52488;47.502;18.940;2022-12-22T05:23:47;47.30;;;20.42;;
65753;SDS011;52488;47.502;18.940;2022-12-22T05:24:50;49.78;;;20.77;;
65753;SDS011;52488;47.502;18.940;2022-12-22T05:25:53;50.85;;;21.02;;
65753;SDS011;52488;47.502;18.940;2022-12-22T05:26:56;48.83;;;20.15;;
65753;SDS011;52488;47.502;18.940;2022-12-22T05:27:59;46.58;;;20.23;;
65753;SDS011;52488;47.502;18.940;2022-12-22T05:29:03;52.15;;;21.10;;
65753;SDS011;52488;47.502;18.940;2022-12-22T05:30:06;52.05;;;20.00;;
65753;SDS011;52488;47.502;18.940;2022-12-22T05:31:11;49.65;;;20.70;;
65753;SDS011;52488;47.502;18.940;2022-12-22T05:32:19;43.28;;;20.55;;
65753;SDS011;52488;47.502;18.940;2022-12-22T05:33:22;49.60;;;18.92;;
65753;SDS011;52488;47.502;18.940;2022-12-22T05:34:26;50.55;;;20.37;;
65753;SDS011;52488;47.502;18.940;2022-12-22T05:35:29;47.08;;;21.33;;
65753;SDS011;52488;47.502;18.940;2022-12-22T05:36:32;53.55;;;21.08;;
65753;SDS011;52488;47.502;18.940;2022-12-22T05:37:35;49.75;;;21.23;;
65753;SDS011;52488;47.502;18.940;2022-12-22T05:38:38;49.08;;;21.15;;
65753;SDS011;52488;47.502;18.940;2022-12-22T05:39:42;49.25;;;21.33;;
65753;SDS011;52488;47.502;18.940;2022-12-22T05:40:45;58.83;;;21.45;;
65753;SDS011;52488;47.502;18.940;2022-12-22T05:41:48;47.50;;;20.77;;
65753;SDS011;52488;47.502;18.940;2022-12-22T05:42:51;48.05;;;20.30;;
65753;SDS011;52488;47.502;18.940;2022-12-22T05:43:54;50.15;;;21.17;;
65753;SDS011;52488;47.502;18.940;2022-12-22T05:44:57;51.15;;;21.12;;
65753;SDS011;52488;47.502;18.940;2022-12-22T05:46:04;48.92;;;21.10;;
65753;SDS011;52488;47.502;18.940;2022-12-22T05:47:09;49.35;;;20.65;;
65753;SDS011;52488;47.502;18.940;2022-12-22T05:48:13;47.45;;;21.23;;
65753;SDS011;52488;47.502;18.940;2022-12-22T05:49:21;49.53;;;20.85;;
65753;SDS011;52488;47.502;18.940;2022-12-22T05:50:27;51.35;;;20.65;;
65753;SDS011;52488;47.502;18.940;2022-12-22T05:51:30;53.38;;;20.90;;
65753;SDS011;52488;47.502;18.940;2022-12-22T05:52:33;51.47;;;21.60;;
65753;SDS011;52488;47.502;18.940;2022-12-22T05:53:37;50.12;;;22.42;;
65753;SDS011;52488;47.502;18.940;2022-12-22T05:54:40;51.90;;;22.33;;
65753;SDS011;52488;47.502;18.940;2022-12-22T05:55:43;50.38;;;22.50;;
65753;SDS011;52488;47.502;18.940;2022-12-22T05:56:46;56.50;;;23.33;;
65753;SDS011;52488;47.502;18.940;2022-12-22T05:57:50;52.50;;;22.92;;
65753;SDS011;52488;47.502;18.940;2022-12-22T05:58:53;60.10;;;22.83;;
65753;SDS011;52488;47.502;18.940;2022-12-22T05:59:56;59.08;;;24.40;;
65753;SDS011;52488;47.502;18.940;2022-12-22T06:00:59;57.72;;;24.52;;
65753;SDS011;52488;47.502;18.940;2022-12-22T06:02:03;55.22;;;23.20;;
65753;SDS011;52488;47.502;18.940;2022-12-22T06:03:06;62.53;;;23.05;;
65753;SDS011;52488;47.502;18.940;2022-12-22T06:04:09;50.33;;;22.35;;
65753;SDS011;52488;47.502;18.940;2022-12-22T06:05:13;51.78;;;22.62;;
65753;SDS011;52488;47.502;18.940;2022-12-22T06:06:16;62.53;;;24.20;;
65753;SDS011;52488;47.502;18.940;2022-12-22T06:07:20;54.47;;;23.35;;
65753;SDS011;52488;47.502;18.940;2022-12-22T06:08:25;51.13;;;22.25;;
65753;SDS011;52488;47.502;18.940;2022-12-22T06:09:28;57.88;;;23.42;;
65753;SDS011;52488;47.502;18.940;2022-12-22T06:10:31;52.30;;;23.02;;
65753;SDS011;52488;47.502;18.940;2022-12-22T06:11:34;56.08;;;23.45;;
65753;SDS011;52488;47.502;18.940;2022-12-22T06:12:37;58.15;;;22.95;;
65753;SDS011;52488;47.502;18.940;2022-12-22T06:13:41;51.03;;;23.08;;
65753;SDS011;52488;47.502;18.940;2022-12-22T06:14:44;48.83;;;21.77;;
65753;SDS011;52488;47.502;18.940;2022-12-22T06:15:48;53.05;;;22.27;;
65753;SDS011;52488;47.502;18.940;2022-12-22T06:16:51;55.63;;;22.25;;
65753;SDS011;52488;47.502;18.940;2022-12-22T06:17:54;52.03;;;23.65;;
65753;SDS011;52488;47.502;18.940;2022-12-22T06:18:57;56.95;;;22.77;;
65753;SDS011;52488;47.502;18.940;2022-12-22T06:20:00;49.95;;;22.42;;
65753;SDS011;52488;47.502;18.940;2022-12-22T06:21:04;54.53;;;22.50;;
65753;SDS011;52488;47.502;18.940;2022-12-22T06:22:07;52.55;;;21.60;;
65753;SDS011;52488;47.502;18.940;2022-12-22T06:23:09;57.08;;;22.83;;
65753;SDS011;52488;47.502;18.940;2022-12-22T06:24:12;55.63;;;22.62;;
65753;SDS011;52488;47.502;18.940;2022-12-22T06:25:15;54.20;;;22.75;;
65753;SDS011;52488;47.502;18.940;2022-12-22T06:26:20;53.40;;;22.08;;
65753;SDS011;52488;47.502;18.940;2022-12-22T06:27:23;50.60;;;22.45;;
65753;SDS011;52488;47.502;18.940;2022-12-22T06:28:27;49.03;;;21.15;;
65753;SDS011;52488;47.502;18.940;2022-12-22T06:29:31;56.58;;;24.02;;
65753;SDS011;52488;47.502;18.940;2022-12-22T06:30:34;55.42;;;22.60;;
65753;SDS011;52488;47.502;18.940;2022-12-22T06:31:37;53.20;;;23.90;;
65753;SDS011;52488;47.502;18.940;2022-12-22T06:32:40;56.22;;;22.92;;
65753;SDS011;52488;47.502;18.940;2022-12-22T06:33:46;52.25;;;23.00;;
65753;SDS011;52488;47.502;18.940;2022-12-22T06:34:49;54.90;;;22.23;;
65753;SDS011;52488;47.502;18.940;2022-12-22T06:35:53;52.83;;;23.25;;
65753;SDS011;52488;47.502;18.940;2022-12-22T06:37:00;57.47;;;22.87;;
65753;SDS011;52488;47.502;18.940;2022-12-22T06:38:03;54.15;;;22.30;;
65753;SDS011;52488;47.502;18.940;2022-12-22T06:39:06;54.42;;;23.60;;
65753;SDS011;52488;47.502;18.940;2022-12-22T06:40:09;56.55;;;23.83;;
65753;SDS011;52488;47.502;18.940;2022-12-22T06:41:12;56.03;;;21.92;;
65753;SDS011;52488;47.502;18.940;2022-12-22T06:42:39;54.03;;;22.70;;
65753;SDS011;52488;47.502;18.940;2022-12-22T06:44:09;55.33;;;23.05;;
65753;SDS011;52488;47.502;18.940;2022-12-22T06:45:12;55.17;;;23.67;;
65753;SDS011;52488;47.502;18.940;2022-12-22T06:46:15;54.72;;;24.73;;
65753;SDS011;52488;47.502;18.940;2022-12-22T06:47:19;55.72;;;23.65;;
65753;SDS011;52488;47.502;18.940;2022-12-22T06:48:23;58.00;;;22.98;;
65753;SDS011;52488;47.502;18.940;2022-12-22T06:49:27;49.13;;;22.30;;
65753;SDS011;52488;47.502;18.940;2022-12-22T06:50:30;59.92;;;24.63;;
65753;SDS011;52488;47.502;18.940;2022-12-22T06:51:33;65.75;;;24.40;;
65753;SDS011;52488;47.502;18.940;2022-12-22T06:52:36;57.00;;;25.60;;
65753;SDS011;52488;47.502;18.940;2022-12-22T06:53:39;58.67;;;25.48;;
65753;SDS011;52488;47.502;18.940;2022-12-22T06:54:42;58.80;;;24.17;;
65753;SDS011;52488;47.502;18.940;2022-12-22T06:55:45;59.08;;;24.15;;
65753;SDS011;52488;47.502;18.940;2022-12-22T06:56:48;50.10;;;22.77;;
65753;SDS011;52488;47.502;18.940;2022-12-22T06:57:53;53.35;;;21.85;;
65753;SDS011;52488;47.502;18.940;2022-12-22T06:58:56;60.00;;;23.92;;
65753;SDS011;52488;47.502;18.940;2022-12-22T07:00:03;57.15;;;23.90;;
65753;SDS011;52488;47.502;18.940;2022-12-22T07:01:07;56.08;;;23.40;;
65753;SDS011;52488;47.502;18.940;2022-12-22T07:02:10;59.17;;;24.12;;
65753;SDS011;52488;47.502;18.940;2022-12-22T07:03:14;60.85;;;23.77;;
65753;SDS011;52488;47.502;18.940;2022-12-22T07:04:17;54.40;;;21.80;;
65753;SDS011;52488;47.502;18.940;2022-12-22T07:05:23;59.85;;;23.20;;
65753;SDS011;52488;47.502;18.940;2022-12-22T07:06:26;57.80;;;24.37;;
65753;SDS011;52488;47.502;18.940;2022-12-22T07:07:29;60.72;;;25.05;;
65753;SDS011;52488;47.502;18.940;2022-12-22T07:08:32;57.05;;;24.50;;
65753;SDS011;52488;47.502;18.940;2022-12-22T07:09:35;56.13;;;23.65;;
65753;SDS011;52488;47.502;18.940;2022-12-22T07:10:38;63.67;;;26.00;;
65753;SDS011;52488;47.502;18.940;2022-12-22T07:12:00;60.03;;;24.52;;
65753;SDS011;52488;47.502;18.940;2022-12-22T07:13:02;55.80;;;24.10;;
65753;SDS011;52488;47.502;18.940;2022-12-22T07:14:21;54.67;;;22.35;;
65753;SDS011;52488;47.502;18.940;2022-12-22T07:15:24;59.90;;;24.12;;
65753;SDS011;52488;47.502;18.940;2022-12-22T07:16:27;61.35;;;25.85;;
65753;SDS011;52488;47.502;18.940;2022-12-22T07:17:30;62.22;;;24.75;;
65753;SDS011;52488;47.502;18.940;2022-12-22T07:18:34;61.95;;;24.90;;
65753;SDS011;52488;47.502;18.940;2022-12-22T07:19:38;58.05;;;24.40;;
65753;SDS011;52488;47.502;18.940;2022-12-22T07:20:42;51.33;;;23.35;;